Time;durP1;ratioP1;P1;durP2;ratioP2;P2;SDS_P1;SDS_P2;PMS_P1;PMS_P2;Temp;Humidity;BMP_temperature;BMP_pressure;BME280_temperature;BME280_humidity;BME280_pressure;Samples;Min_cycle;Max_cycle;Signal;HPM_P1;HPM_P2
2022/10/26 00:00:27;;;;;;;5.25;1.50;;;15.60;99.90;;;;;;1873923;75;21518;-86
2022/10/26 00:03:19;;;;;;;4.40;1.42;;;15.60;99.90;;;;;;1887811;75;21634;-86
2022/10/26 00:06:13;;;;;;;3.17;1.50;;;15.60;99.90;;;;;;1872962;76;21133;-86
2022/10/26 00:09:04;;;;;;;4.85;1.40;;;15.60;99.90;;;;;;1894696;75;21103;-86
2022/10/26 00:11:56;;;;;;;2.40;1.35;;;15.70;99.90;;;;;;1897173;75;21052;-86
2022/10/26 00:14:47;;;;;;;5.30;1.67;;;15.60;99.90;;;;;;1904854;75;21055;-86
2022/10/26 00:17:39;;;;;;;3.80;1.67;;;15.70;99.90;;;;;;1872380;77;21075;-86
2022/10/26 00:20:32;;;;;;;6.65;1.92;;;15.70;99.90;;;;;;1893962;75;21066;-86
2022/10/26 00:23:23;;;;;;;5.20;1.30;;;15.50;99.90;;;;;;1894250;75;21166;-86
2022/10/26 00:26:15;;;;;;;5.17;1.60;;;15.40;99.90;;;;;;1893811;75;21201;-87
2022/10/26 00:29:07;;;;;;;4.85;1.72;;;15.40;99.90;;;;;;1888412;75;21084;-86
2022/10/26 00:31:59;;;;;;;3.52;1.67;;;15.40;99.90;;;;;;1883519;75;21059;-86
2022/10/26 00:34:50;;;;;;;5.35;1.80;;;15.50;99.90;;;;;;1877303;75;21607;-86
2022/10/26 00:37:42;;;;;;;4.95;1.67;;;15.40;99.90;;;;;;1894450;75;21065;-86
2022/10/26 00:40:34;;;;;;;3.77;1.47;;;15.40;99.90;;;;;;1872514;75;21810;-86
2022/10/26 00:43:39;;;;;;;4.90;1.75;;;15.50;99.90;;;;;;1884369;75;21089;-86
2022/10/26 00:46:33;;;;;;;2.80;1.50;;;15.60;99.90;;;;;;1875017;75;21051;-86
2022/10/26 00:49:25;;;;;;;3.22;1.57;;;15.50;99.90;;;;;;1894380;75;21156;-86
2022/10/26 00:52:18;;;;;;;4.95;1.70;;;15.50;99.90;;;;;;1895858;75;21111;-87
2022/10/26 00:55:10;;;;;;;6.47;1.90;;;15.40;99.90;;;;;;1873976;76;21091;-86
2022/10/26 00:58:03;;;;;;;4.40;1.50;;;15.40;99.90;;;;;;1884491;75;21123;-87
2022/10/26 01:00:59;;;;;;;4.58;1.70;;;15.40;99.90;;;;;;1897459;75;21055;-86
2022/10/26 01:03:59;;;;;;;3.42;1.87;;;15.50;99.90;;;;;;1894417;75;21142;-86
2022/10/26 01:06:54;;;;;;;4.65;1.80;;;15.60;99.90;;;;;;1893830;75;21106;-86
2022/10/26 01:09:49;;;;;;;8.58;2.00;;;15.60;99.90;;;;;;1889737;75;21601;-86
2022/10/26 01:12:43;;;;;;;9.55;2.98;;;15.60;99.90;;;;;;1897794;75;21075;-86
2022/10/26 01:18:28;;;;;;;11.68;3.50;;;15.60;99.90;;;;;;1950141;72;22071;-85
2022/10/26 01:21:41;;;;;;;13.85;4.53;;;15.60;99.90;;;;;;1917955;75;21147;-87
2022/10/26 01:24:49;;;;;;;9.38;3.72;;;15.60;99.90;;;;;;1917908;75;21076;-87
2022/10/26 01:27:41;;;;;;;12.78;4.58;;;15.80;99.90;;;;;;1917986;75;21218;-85
2022/10/26 01:30:36;;;;;;;12.35;4.78;;;16.00;99.90;;;;;;1917733;75;21055;-86
2022/10/26 01:33:35;;;;;;;10.72;4.50;;;16.10;99.90;;;;;;1926469;73;21067;-86
2022/10/26 01:36:29;;;;;;;15.80;4.35;;;16.50;99.90;;;;;;1924464;73;21174;-86
2022/10/26 01:39:23;;;;;;;9.80;4.75;;;17.10;99.90;;;;;;1940486;73;21058;-87
2022/10/26 01:42:17;;;;;;;9.85;4.37;;;17.60;99.90;;;;;;1933932;73;21051;-86
2022/10/26 01:45:13;;;;;;;4.55;2.20;;;18.10;99.90;;;;;;1917903;75;21105;-86
2022/10/26 01:48:06;;;;;;;6.75;2.10;;;18.10;99.90;;;;;;1917780;75;21572;-87
2022/10/26 01:50:59;;;;;;;7.70;2.05;;;17.40;99.90;;;;;;1921522;73;21101;-86
2022/10/26 01:53:51;;;;;;;4.47;1.60;;;17.10;99.90;;;;;;1930236;73;21124;-86
2022/10/26 01:56:45;;;;;;;3.77;1.70;;;16.90;99.90;;;;;;1896149;75;21140;-86
2022/10/26 01:59:57;;;;;;;3.10;1.50;;;16.80;99.90;;;;;;1917906;75;21134;-86
2022/10/26 02:03:03;;;;;;;7.62;1.87;;;16.70;99.90;;;;;;1917911;75;21343;-86
2022/10/26 02:06:02;;;;;;;7.75;2.15;;;16.70;99.90;;;;;;1940305;73;21068;-86
2022/10/26 02:08:59;;;;;;;7.65;2.30;;;16.70;99.90;;;;;;1917747;75;21091;-86
2022/10/26 02:11:53;;;;;;;6.10;1.87;;;16.70;99.90;;;;;;1918086;75;21062;-86
2022/10/26 02:14:48;;;;;;;4.35;1.60;;;16.70;99.90;;;;;;1917821;75;21140;-86
2022/10/26 02:17:45;;;;;;;9.20;1.92;;;16.70;99.90;;;;;;1913673;74;21072;-86
2022/10/26 02:20:40;;;;;;;7.17;1.80;;;16.60;99.90;;;;;;1905319;75;21364;-86
2022/10/26 02:23:34;;;;;;;4.42;1.57;;;16.50;99.90;;;;;;1917867;75;21183;-86
2022/10/26 02:26:28;;;;;;;5.12;1.52;;;16.40;99.90;;;;;;1927707;74;21124;-86
2022/10/26 02:29:22;;;;;;;4.58;1.47;;;16.30;99.90;;;;;;1904949;75;21117;-86
2022/10/26 02:32:13;;;;;;;6.45;1.75;;;16.20;99.90;;;;;;1919432;74;21157;-86
2022/10/26 02:35:06;;;;;;;6.53;1.70;;;16.20;99.90;;;;;;1918708;73;21058;-86
2022/10/26 02:38:00;;;;;;;3.75;1.42;;;16.20;99.90;;;;;;1887061;75;21114;-87
2022/10/26 02:40:52;;;;;;;4.17;1.30;;;16.10;99.90;;;;;;1920119;75;21138;-87
2022/10/26 02:43:46;;;;;;;6.25;1.60;;;16.10;99.90;;;;;;1914641;74;21097;-86
2022/10/26 02:46:38;;;;;;;4.47;1.47;;;16.00;99.90;;;;;;1904852;75;21523;-86
2022/10/26 02:49:30;;;;;;;6.55;1.80;;;16.00;99.90;;;;;;1916918;75;21082;-87
2022/10/26 02:52:25;;;;;;;5.25;1.72;;;15.90;99.90;;;;;;1917164;75;21122;-86
2022/10/26 02:55:20;;;;;;;2.58;1.52;;;15.80;99.90;;;;;;1916955;75;21098;-86
2022/10/26 02:58:15;;;;;;;6.33;1.27;;;15.70;99.90;;;;;;1916876;75;21573;-86
2022/10/26 03:01:07;;;;;;;6.15;1.72;;;15.80;99.90;;;;;;1917501;75;21047;-86
2022/10/26 03:03:59;;;;;;;4.12;1.50;;;15.70;99.90;;;;;;1917237;75;21142;-86
2022/10/26 03:06:55;;;;;;;6.22;1.75;;;15.70;99.90;;;;;;1917024;75;21133;-86
2022/10/26 03:09:46;;;;;;;7.15;1.72;;;15.70;99.90;;;;;;1904752;75;21084;-87
2022/10/26 03:12:37;;;;;;;4.10;1.30;;;15.60;99.90;;;;;;1917318;74;21160;-86
2022/10/26 03:15:29;;;;;;;5.75;1.42;;;15.60;99.90;;;;;;1908506;74;21107;-86
2022/10/26 03:18:20;;;;;;;3.40;1.40;;;15.70;99.90;;;;;;1851669;76;21087;-85
2022/10/26 03:21:11;;;;;;;5.55;1.62;;;15.70;99.90;;;;;;1889885;76;21130;-86
2022/10/26 03:24:03;;;;;;;2.30;1.27;;;15.80;99.90;;;;;;1933082;74;21145;-86
2022/10/26 03:26:54;;;;;;;4.65;1.90;;;15.70;99.90;;;;;;1932988;74;21117;-86
2022/10/26 03:29:47;;;;;;;7.40;1.60;;;15.70;99.90;;;;;;1935870;73;21069;-86
2022/10/26 03:32:39;;;;;;;4.75;1.40;;;15.70;99.90;;;;;;1947313;73;21071;-86
2022/10/26 03:35:30;;;;;;;5.28;1.60;;;15.70;99.90;;;;;;1933127;74;21109;-86
2022/10/26 03:38:22;;;;;;;6.72;1.70;;;15.70;99.90;;;;;;1942927;73;21050;-86
2022/10/26 03:41:13;;;;;;;3.98;1.80;;;15.70;99.90;;;;;;1944637;73;21104;-86
2022/10/26 03:44:05;;;;;;;5.00;1.90;;;15.70;99.90;;;;;;1945687;73;21062;-86
2022/10/26 03:46:57;;;;;;;5.25;2.05;;;15.70;99.90;;;;;;1933167;73;21095;-85
2022/10/26 03:49:48;;;;;;;3.77;1.60;;;15.70;99.90;;;;;;1857783;77;21493;-86
2022/10/26 03:52:40;;;;;;;4.08;2.17;;;15.80;99.90;;;;;;1935430;73;21126;-86
2022/10/26 03:55:31;;;;;;;6.90;2.12;;;15.80;99.90;;;;;;1857680;76;21068;-86
2022/10/26 03:58:23;;;;;;;4.47;2.00;;;15.70;99.90;;;;;;1933273;74;21048;-87
2022/10/26 04:01:14;;;;;;;5.58;1.90;;;15.80;99.90;;;;;;1945635;73;21058;-85
2022/10/26 04:04:06;;;;;;;4.22;2.25;;;15.70;99.90;;;;;;1944765;73;21042;-86
2022/10/26 04:06:57;;;;;;;5.15;2.20;;;15.70;99.90;;;;;;1942794;73;21054;-86
2022/10/26 04:09:48;;;;;;;2.80;1.82;;;15.70;99.90;;;;;;1933235;74;21522;-86
2022/10/26 04:12:40;;;;;;;6.12;2.10;;;15.60;99.90;;;;;;1933284;74;21054;-86
2022/10/26 04:15:31;;;;;;;2.72;1.92;;;15.60;99.90;;;;;;1941510;73;21091;-86
2022/10/26 04:18:23;;;;;;;5.08;2.25;;;15.60;99.90;;;;;;1941709;73;21087;-85
2022/10/26 04:21:14;;;;;;;5.35;2.30;;;15.60;99.90;;;;;;1933331;74;21113;-86
2022/10/26 04:24:06;;;;;;;6.62;2.55;;;15.60;99.90;;;;;;1933500;73;21075;-86
2022/10/26 04:26:58;;;;;;;5.05;2.10;;;15.50;99.90;;;;;;1935100;74;21084;-86
2022/10/26 04:29:49;;;;;;;5.70;2.40;;;15.50;99.90;;;;;;1857743;77;21078;-87
2022/10/26 04:32:41;;;;;;;4.53;2.02;;;15.50;99.90;;;;;;1949370;73;21047;-86
2022/10/26 04:35:33;;;;;;;5.92;2.17;;;15.50;99.90;;;;;;1889616;76;21135;-86
2022/10/26 04:38:24;;;;;;;6.53;2.17;;;15.50;99.90;;;;;;1933028;74;21199;-86
2022/10/26 04:41:16;;;;;;;3.67;2.02;;;15.40;99.90;;;;;;1933259;74;21054;-86
2022/10/26 04:44:07;;;;;;;5.58;2.22;;;15.30;99.90;;;;;;1933411;73;21054;-86
2022/10/26 04:46:59;;;;;;;5.05;2.15;;;15.30;99.90;;;;;;1871659;76;21091;-86
2022/10/26 04:49:50;;;;;;;3.87;2.55;;;15.20;99.90;;;;;;1933075;74;21136;-86
2022/10/26 04:52:42;;;;;;;5.97;2.22;;;15.20;99.90;;;;;;1933097;74;21054;-86
2022/10/26 04:55:34;;;;;;;5.47;2.20;;;15.30;99.90;;;;;;1934207;73;21142;-86
2022/10/26 04:58:26;;;;;;;5.70;2.47;;;15.20;99.90;;;;;;1948619;73;21538;-86
2022/10/26 05:01:18;;;;;;;7.35;2.42;;;15.20;99.90;;;;;;1902030;75;21106;-86
2022/10/26 05:04:09;;;;;;;5.00;2.27;;;15.20;99.90;;;;;;1936707;73;21046;-86
2022/10/26 05:07:01;;;;;;;4.50;2.42;;;15.20;99.90;;;;;;1856242;77;21074;-86
2022/10/26 05:09:53;;;;;;;5.40;3.15;;;15.20;99.90;;;;;;1939718;73;21078;-86
2022/10/26 05:12:51;;;;;;;6.92;2.70;;;15.20;99.90;;;;;;1904011;75;21063;-86
2022/10/26 05:15:42;;;;;;;9.10;2.50;;;15.10;99.90;;;;;;1956740;73;21075;-85
2022/10/26 05:18:33;;;;;;;6.55;2.80;;;15.00;99.90;;;;;;1884423;76;21063;-85
2022/10/26 05:21:27;;;;;;;5.75;2.00;;;15.00;99.90;;;;;;1927277;73;21085;-85
2022/10/26 05:24:18;;;;;;;6.22;2.62;;;15.00;99.90;;;;;;1904587;75;21059;-86
2022/10/26 05:27:09;;;;;;;9.68;3.05;;;15.00;99.90;;;;;;1904843;75;21128;-85
2022/10/26 05:30:01;;;;;;;5.58;2.72;;;15.00;99.90;;;;;;1916590;75;21125;-88
2022/10/26 05:32:56;;;;;;;8.63;2.62;;;15.10;99.90;;;;;;1916980;75;21097;-86
2022/10/26 05:35:47;;;;;;;4.85;2.55;;;15.10;99.90;;;;;;1916799;75;21046;-85
2022/10/26 05:38:38;;;;;;;3.40;2.40;;;15.10;99.90;;;;;;1869054;77;21096;-85
2022/10/26 05:41:30;;;;;;;8.63;2.58;;;15.10;99.90;;;;;;1843170;77;21607;-86
2022/10/26 05:44:21;;;;;;;7.58;2.67;;;15.00;99.90;;;;;;1842927;77;21141;-85
2022/10/26 05:47:13;;;;;;;6.95;2.72;;;14.90;99.90;;;;;;1836440;78;21107;-85
2022/10/26 05:50:05;;;;;;;6.60;2.40;;;14.90;99.90;;;;;;1867972;77;21216;-85
2022/10/26 05:52:56;;;;;;;7.87;2.72;;;14.80;99.90;;;;;;1860554;76;21158;-85
2022/10/26 05:55:50;;;;;;;8.33;2.50;;;14.80;99.90;;;;;;1861068;76;21215;-85
2022/10/26 05:58:43;;;;;;;6.37;2.65;;;14.80;99.90;;;;;;1835108;78;21062;-86
2022/10/26 06:01:39;;;;;;;6.70;3.20;;;14.80;99.90;;;;;;1852198;77;21231;-85
2022/10/26 06:04:37;;;;;;;7.60;2.70;;;14.80;99.90;;;;;;1879982;75;21088;-85
2022/10/26 06:07:28;;;;;;;;;;;14.90;99.90;;;;;;1907490;75;21060;-85
2022/10/26 06:10:20;;;;;;;5.30;2.40;;;14.90;99.90;;;;;;1904835;75;20156;-85
2022/10/26 06:13:13;;;;;;;5.83;2.60;;;14.90;99.90;;;;;;1917290;75;21166;-74
2022/10/26 06:16:31;;;;;;;4.85;2.35;;;14.80;99.90;;;;;;1932561;73;21039;-77
2022/10/26 06:19:25;;;;;;;;;;;14.80;99.90;;;;;;1919653;75;21507;-77
2022/10/26 06:22:28;;;;;;;10.65;3.10;;;14.80;99.90;;;;;;1919546;74;20144;-77
2022/10/26 06:25:26;;;;;;;11.80;3.02;;;14.80;99.90;;;;;;1911816;74;21170;-78
2022/10/26 06:28:19;;;;;;;;;;;14.80;99.90;;;;;;1925817;73;21120;-77
2022/10/26 06:31:10;;;;;;;12.43;3.10;;;14.70;99.90;;;;;;1937073;73;20258;-77
2022/10/26 06:34:02;;;;;;;6.75;2.92;;;14.70;99.90;;;;;;1911245;74;21126;-77
2022/10/26 06:36:55;;;;;;;7.85;3.05;;;14.70;99.90;;;;;;1924222;74;21448;-76
2022/10/26 06:39:49;;;;;;;7.95;3.00;;;14.60;99.90;;;;;;1922497;74;21219;-76
2022/10/26 06:42:43;;;;;;;11.22;3.67;;;14.60;99.90;;;;;;1922659;74;21567;-77
2022/10/26 06:45:36;;;;;;;13.10;3.02;;;14.60;99.90;;;;;;1928622;74;21063;-77
2022/10/26 06:48:30;;;;;;;6.25;2.65;;;14.60;99.90;;;;;;1927648;74;21177;-78
2022/10/26 06:51:22;;;;;;;11.33;3.27;;;14.60;99.90;;;;;;1913269;74;21098;-78
2022/10/26 06:54:19;;;;;;;5.20;3.10;;;14.60;99.90;;;;;;1917254;74;21180;-76
2022/10/26 06:57:13;;;;;;;8.13;3.40;;;14.60;99.90;;;;;;1921292;74;21110;-76
2022/10/26 07:00:08;;;;;;;6.83;3.35;;;14.60;99.90;;;;;;1939011;74;21171;-76
2022/10/26 07:02:59;;;;;;;10.18;4.10;;;14.60;99.90;;;;;;1920185;74;21086;-76
2022/10/26 07:05:51;;;;;;;11.78;3.40;;;14.70;99.90;;;;;;1918468;74;21101;-76
2022/10/26 07:08:42;;;;;;;11.03;3.08;;;14.70;99.90;;;;;;1918413;74;21073;-76
2022/10/26 07:11:34;;;;;;;10.90;3.77;;;14.70;99.90;;;;;;1920569;74;21526;-76
2022/10/26 07:14:25;;;;;;;10.03;3.47;;;14.70;99.90;;;;;;1920665;74;21091;-78
2022/10/26 07:17:17;;;;;;;7.40;2.98;;;14.80;99.90;;;;;;1921803;74;21157;-78
2022/10/26 07:20:09;;;;;;;10.90;3.37;;;14.80;99.90;;;;;;1922458;74;21510;-78
2022/10/26 07:23:00;;;;;;;12.20;3.15;;;14.90;99.90;;;;;;1936347;74;21153;-76
2022/10/26 07:25:52;;;;;;;8.03;2.80;;;14.90;99.90;;;;;;1932919;74;21065;-76
2022/10/26 07:28:44;;;;;;;9.75;3.40;;;15.00;99.90;;;;;;1933157;74;21066;-76
2022/10/26 07:31:35;;;;;;;14.58;3.12;;;15.00;99.90;;;;;;1933018;74;21123;-76
2022/10/26 07:34:26;;;;;;;6.08;2.83;;;15.00;99.90;;;;;;1932749;74;21224;-76
2022/10/26 07:37:18;;;;;;;11.00;3.30;;;15.10;99.90;;;;;;1933016;74;21091;-76
2022/10/26 07:40:11;;;;;;;6.72;2.87;;;15.10;99.90;;;;;;1933112;74;21065;-78
2022/10/26 07:43:02;;;;;;;6.95;2.90;;;15.20;99.90;;;;;;1956343;73;21126;-78
2022/10/26 07:45:53;;;;;;;6.80;3.58;;;15.20;99.90;;;;;;1956266;73;21058;-76
2022/10/26 07:48:45;;;;;;;7.00;3.58;;;15.30;99.90;;;;;;1932932;74;21134;-76
2022/10/26 07:51:36;;;;;;;7.25;3.15;;;15.30;99.90;;;;;;1932799;74;21106;-76
2022/10/26 07:54:28;;;;;;;10.65;2.95;;;15.30;99.90;;;;;;1940458;73;21145;-76
2022/10/26 07:57:20;;;;;;;6.00;3.25;;;15.40;99.90;;;;;;1942419;73;21157;-76
2022/10/26 08:00:14;;;;;;;7.08;3.02;;;15.50;99.90;;;;;;1933150;74;21163;-77
2022/10/26 08:03:06;;;;;;;10.50;3.52;;;15.50;99.90;;;;;;1933082;74;21046;-78
2022/10/26 08:05:57;;;;;;;8.15;3.62;;;15.60;99.90;;;;;;1933036;74;21047;-76
2022/10/26 08:08:50;;;;;;;6.67;3.20;;;15.60;99.90;;;;;;1932911;74;21042;-76
2022/10/26 08:11:41;;;;;;;14.15;3.72;;;15.60;99.90;;;;;;1933040;74;21058;-76
2022/10/26 08:14:33;;;;;;;14.68;3.80;;;15.70;99.90;;;;;;1932997;74;21115;-77
2022/10/26 08:17:25;;;;;;;8.68;3.50;;;15.80;99.90;;;;;;1932938;74;21519;-76
2022/10/26 08:20:16;;;;;;;5.58;3.25;;;15.80;99.90;;;;;;1937043;73;21115;-76
2022/10/26 08:23:08;;;;;;;8.55;3.85;;;15.90;99.90;;;;;;1954508;73;21103;-78
2022/10/26 08:26:01;;;;;;;7.35;3.75;;;15.90;99.90;;;;;;1926466;74;21109;-77
2022/10/26 08:28:52;;;;;;;7.42;3.62;;;16.00;99.90;;;;;;1926649;74;21058;-77
2022/10/26 08:31:44;;;;;;;13.32;5.70;;;16.00;99.90;;;;;;1926532;74;21080;-77
2022/10/26 08:34:35;;;;;;;10.75;4.45;;;16.10;99.90;;;;;;1926405;74;21127;-76
2022/10/26 08:37:28;;;;;;;8.65;4.28;;;16.20;99.90;;;;;;1926525;74;21058;-77
2022/10/26 08:40:22;;;;;;;7.35;4.17;;;16.20;99.90;;;;;;1926368;74;21526;-77
2022/10/26 08:43:17;;;;;;;10.82;5.65;;;16.30;99.90;;;;;;1926480;74;21070;-77
2022/10/26 08:46:13;;;;;;;8.85;4.87;;;16.40;99.90;;;;;;1926333;74;21102;-76
2022/10/26 08:49:10;;;;;;;6.50;3.95;;;16.40;99.90;;;;;;1949525;73;21090;-77
2022/10/26 08:52:05;;;;;;;9.58;4.20;;;16.50;99.90;;;;;;1926486;74;21199;-76
2022/10/26 08:54:59;;;;;;;7.42;3.77;;;16.60;99.90;;;;;;1941114;73;21051;-76
2022/10/26 08:57:52;;;;;;;7.95;4.12;;;16.70;99.90;;;;;;1928213;73;21511;-77
2022/10/26 09:00:44;;;;;;;14.90;4.25;;;16.80;99.90;;;;;;1926518;74;21235;-77
2022/10/26 09:03:36;;;;;;;7.30;4.70;;;16.80;99.90;;;;;;1926493;74;21581;-77
2022/10/26 09:06:31;;;;;;;10.00;3.65;;;16.90;99.90;;;;;;1926400;74;21086;-76
2022/10/26 09:09:26;;;;;;;9.18;4.17;;;17.00;99.90;;;;;;1938747;73;21129;-77
2022/10/26 09:12:20;;;;;;;8.30;3.70;;;17.10;99.90;;;;;;1930218;73;21470;-77
2022/10/26 09:15:17;;;;;;;8.08;3.83;;;17.10;99.90;;;;;;1926407;74;21047;-76
2022/10/26 09:18:16;;;;;;;7.92;3.83;;;17.20;99.90;;;;;;1926457;74;21131;-76
2022/10/26 09:21:21;;;;;;;6.17;3.30;;;17.30;99.90;;;;;;1926504;74;21054;-76
2022/10/26 09:24:16;;;;;;;9.93;3.33;;;17.30;99.90;;;;;;1928326;74;21075;-77
2022/10/26 09:27:13;;;;;;;5.37;3.25;;;17.30;99.90;;;;;;1926202;74;21212;-77
2022/10/26 09:30:11;;;;;;;5.12;2.87;;;17.40;99.90;;;;;;1915591;74;21125;-77
2022/10/26 09:33:03;;;;;;;;;;;17.50;99.90;;;;;;1921377;74;21140;-77
2022/10/26 09:35:57;;;;;;;10.68;3.60;;;17.50;99.90;;;;;;1920290;74;20158;-77
2022/10/26 09:38:53;;;;;;;9.73;3.50;;;17.60;99.90;;;;;;1945491;74;21599;-77
2022/10/26 09:41:47;;;;;;;8.08;3.10;;;17.70;99.90;;;;;;1933332;74;21117;-77
2022/10/26 09:44:42;;;;;;;7.95;3.40;;;17.80;99.90;;;;;;1929976;74;21058;-76
2022/10/26 09:47:37;;;;;;;8.08;2.98;;;17.90;99.90;;;;;;1912056;74;21091;-77
2022/10/26 09:50:31;;;;;;;7.92;3.02;;;17.90;99.90;;;;;;1920848;74;21137;-76
2022/10/26 09:53:23;;;;;;;12.15;2.90;;;18.00;99.90;;;;;;1920570;74;21067;-77
2022/10/26 09:59:03;;;;;;;10.78;2.87;;;18.20;99.90;;;;;;1954604;72;20107;-77
2022/10/26 10:01:54;;;;;;;7.58;2.87;;;18.30;99.90;;;;;;1905622;75;21506;-77
2022/10/26 10:04:48;;;;;;;7.35;2.98;;;18.40;99.90;;;;;;1900246;75;21088;-77
2022/10/26 10:07:39;;;;;;;7.55;3.55;;;18.50;99.90;;;;;;1895446;75;21129;-78
2022/10/26 10:10:31;;;;;;;8.83;3.87;;;18.60;99.90;;;;;;1890160;75;21514;-77
2022/10/26 10:13:25;;;;;;;6.53;4.15;;;18.70;99.90;;;;;;1884844;75;21071;-78
2022/10/26 10:16:28;;;;;;;11.48;4.22;;;18.70;99.90;;;;;;1900291;75;21608;-78
2022/10/26 10:19:24;;;;;;;8.70;3.25;;;18.80;99.90;;;;;;1831205;78;21069;-78
2022/10/26 10:22:23;;;;;;;8.90;3.47;;;18.90;99.90;;;;;;1874846;76;21480;-78
2022/10/26 10:25:15;;;;;;;;;;;18.90;99.90;;;;;;1879430;76;21166;-78
2022/10/26 10:28:21;;;;;;;9.28;3.65;;;18.90;99.90;;;;;;1875703;76;20168;-77
2022/10/26 10:31:22;;;;;;;8.85;3.37;;;19.00;99.90;;;;;;1862231;76;21163;-77
2022/10/26 10:34:18;;;;;;;7.47;3.22;;;19.10;99.90;;;;;;1875732;76;21109;-77
2022/10/26 10:37:21;;;;;;;8.23;3.65;;;19.10;99.90;;;;;;1875831;76;21069;-78
2022/10/26 10:40:18;;;;;;;5.62;2.90;;;19.20;99.90;;;;;;1857482;76;21181;-77
2022/10/26 10:43:14;;;;;;;9.05;3.80;;;19.30;99.90;;;;;;1855937;76;21144;-78
2022/10/26 10:46:05;;;;;;;8.20;3.33;;;19.30;99.90;;;;;;1840874;78;21228;-77
2022/10/26 10:49:03;;;;;;;8.05;3.72;;;19.40;99.90;;;;;;1833572;77;21123;-76
2022/10/26 10:51:55;;;;;;;12.07;3.83;;;19.50;99.90;;;;;;1821212;79;21153;-78
2022/10/26 10:54:50;;;;;;;8.05;3.22;;;19.60;99.90;;;;;;1824474;79;21077;-78
2022/10/26 10:57:47;;;;;;;6.87;2.92;;;19.60;99.90;;;;;;1873019;76;21093;-77
2022/10/26 11:00:41;;;;;;;10.03;3.00;;;19.70;99.90;;;;;;1855545;76;21233;-76
2022/10/26 11:04:01;;;;;;;9.43;2.80;;;19.70;99.90;;;;;;1856781;76;21069;-77
2022/10/26 11:06:55;;;;;;;8.63;3.27;;;19.70;99.90;;;;;;1801254;78;21573;-77
2022/10/26 11:09:49;;;;;;;10.48;4.03;;;19.80;99.90;;;;;;1822442;79;21162;-77
2022/10/26 11:12:43;;;;;;;8.48;2.98;;;19.90;99.90;;;;;;1843156;78;21113;-76
2022/10/26 11:15:37;;;;;;;6.90;2.90;;;19.90;99.90;;;;;;1855041;76;21138;-77
2022/10/26 11:18:33;;;;;;;9.88;3.77;;;20.00;99.90;;;;;;1831203;78;21147;-79
2022/10/26 11:21:28;;;;;;;7.20;2.98;;;20.10;99.90;;;;;;1824803;78;21108;-77
2022/10/26 11:24:22;;;;;;;11.10;3.02;;;20.20;99.90;;;;;;1828786;78;21192;-77
2022/10/26 11:27:16;;;;;;;9.18;2.95;;;20.20;99.90;;;;;;1858324;77;21065;-76
2022/10/26 11:30:12;;;;;;;8.30;3.10;;;20.30;99.90;;;;;;1880775;76;21132;-78
2022/10/26 11:33:06;;;;;;;5.37;2.50;;;20.40;99.90;;;;;;1881052;76;21509;-77
2022/10/26 11:36:01;;;;;;;6.12;2.50;;;20.50;99.90;;;;;;1878140;76;21148;-77
2022/10/26 11:38:55;;;;;;;9.35;2.70;;;20.50;99.90;;;;;;1865978;76;21053;-78
2022/10/26 11:41:52;;;;;;;5.55;2.62;;;20.60;99.90;;;;;;1827474;78;21139;-78
2022/10/26 11:44:46;;;;;;;8.18;2.92;;;20.60;99.90;;;;;;1861716;77;21612;-77
2022/10/26 11:47:42;;;;;;;10.32;3.00;;;20.60;99.90;;;;;;1861598;77;21587;-77
2022/10/26 11:50:38;;;;;;;9.63;2.80;;;20.60;99.90;;;;;;1861342;77;21137;-77
2022/10/26 11:56:15;;;;;;;8.88;2.35;;;20.70;99.90;;;;;;1944035;72;22514;-77
2022/10/26 11:59:08;;;;;;;7.83;2.58;;;20.70;99.90;;;;;;1906728;75;21160;-79
2022/10/26 12:02:03;;;;;;;8.05;2.30;;;20.80;99.90;;;;;;1907181;75;21059;-77
2022/10/26 12:04:58;;;;;;;6.30;2.55;;;20.90;99.90;;;;;;1902336;75;21113;-77
2022/10/26 12:07:53;;;;;;;8.55;2.62;;;20.90;99.90;;;;;;1897924;75;21120;-77
2022/10/26 12:10:49;;;;;;;10.00;2.80;;;21.00;99.90;;;;;;1908742;75;21142;-78
2022/10/26 12:13:44;;;;;;;8.00;3.58;;;21.00;99.90;;;;;;1907143;75;21162;-77
2022/10/26 12:16:43;;;;;;;9.15;3.12;;;21.10;99.90;;;;;;1884253;76;21103;-77
2022/10/26 12:19:37;;;;;;;8.35;2.90;;;21.10;99.90;;;;;;1902614;75;21059;-77
2022/10/26 12:22:31;;;;;;;9.20;2.50;;;21.10;99.90;;;;;;1897955;75;21054;-77
2022/10/26 12:25:23;;;;;;;6.67;2.20;;;21.10;99.90;;;;;;1895410;75;21052;-78
2022/10/26 12:28:41;;;;;;;8.60;3.25;;;21.20;99.90;;;;;;1892074;75;21534;-77
2022/10/26 12:31:51;;;;;;;8.68;3.50;;;21.30;99.90;;;;;;1906723;75;21115;-76
2022/10/26 12:35:03;;;;;;;8.75;3.00;;;21.40;99.90;;;;;;1909916;75;21491;-77
2022/10/26 12:37:54;;;;;;;5.35;2.15;;;21.50;99.90;;;;;;1893289;75;21171;-76
2022/10/26 12:40:46;;;;;;;9.03;2.87;;;21.60;99.90;;;;;;1903690;75;21146;-77
2022/10/26 12:43:40;;;;;;;9.98;2.58;;;21.60;99.90;;;;;;1917567;75;21585;-77
2022/10/26 12:46:41;;;;;;;9.80;2.52;;;21.60;99.90;;;;;;1895415;75;21128;-76
2022/10/26 12:50:00;;;;;;;8.30;2.50;;;21.60;99.90;;;;;;1895276;75;21075;-77
2022/10/26 12:52:55;;;;;;;6.75;2.42;;;21.60;99.90;;;;;;1895620;75;21051;-78
2022/10/26 12:56:06;;;;;;;9.35;3.08;;;21.80;99.90;;;;;;1899645;74;21090;-78
2022/10/26 12:59:19;;;;;;;8.08;2.55;;;21.80;99.90;;;;;;1825780;78;21077;-76
2022/10/26 13:05:34;;;;;;;10.60;2.52;;;21.80;99.90;;;;;;1957289;72;22570;-76
2022/10/26 13:08:27;;;;;;;6.30;2.77;;;21.90;99.90;;;;;;1906412;75;21146;-77
2022/10/26 13:11:21;;;;;;;6.03;2.02;;;22.00;99.90;;;;;;1900940;75;21129;-77
2022/10/26 13:14:21;;;;;;;10.53;3.08;;;22.10;99.90;;;;;;1896547;75;21047;-76
2022/10/26 13:17:24;;;;;;;5.15;2.85;;;22.10;99.90;;;;;;1895290;75;21099;-77
2022/10/26 13:20:18;;;;;;;9.88;2.92;;;22.20;99.90;;;;;;1889364;75;21055;-76
2022/10/26 13:23:21;;;;;;;7.47;2.92;;;22.20;99.90;;;;;;1906765;75;21177;-77
2022/10/26 13:26:14;;;;;;;10.48;2.98;;;22.20;99.90;;;;;;1905688;75;21115;-77
2022/10/26 13:29:05;;;;;;;11.75;3.92;;;22.30;99.90;;;;;;1900830;75;21047;-77
2022/10/26 13:31:58;;;;;;;9.70;2.50;;;22.40;99.90;;;;;;1895361;75;21133;-76
2022/10/26 13:34:49;;;;;;;7.75;2.50;;;22.40;99.90;;;;;;1895528;75;21040;-76
2022/10/26 13:40:24;;;;;;;7.47;2.70;;;22.40;99.90;;;;;;1955319;72;22300;-76
2022/10/26 13:43:22;;;;;;;10.08;2.95;;;22.40;99.90;;;;;;1895455;74;21188;-77
2022/10/26 13:46:27;;;;;;;7.42;2.75;;;22.50;99.90;;;;;;1895508;75;21135;-78
2022/10/26 13:49:22;;;;;;;11.25;2.55;;;22.50;99.90;;;;;;1891808;75;21140;-77
2022/10/26 13:52:20;;;;;;;7.75;2.50;;;22.60;99.90;;;;;;1906417;75;21091;-77
2022/10/26 13:55:17;;;;;;;8.10;2.90;;;22.60;99.90;;;;;;1900163;75;21055;-77
2022/10/26 13:58:17;;;;;;;9.23;3.00;;;22.60;99.90;;;;;;1899166;75;21040;-76
2022/10/26 14:01:16;;;;;;;10.55;3.05;;;22.60;99.90;;;;;;1906940;75;21055;-77
2022/10/26 14:04:17;;;;;;;9.88;2.85;;;22.70;99.90;;;;;;1891902;75;21050;-77
2022/10/26 14:07:19;;;;;;;9.98;2.90;;;22.70;99.90;;;;;;1895220;75;21121;-76
2022/10/26 14:10:26;;;;;;;10.38;2.92;;;22.80;99.90;;;;;;1894403;75;21091;-76
2022/10/26 14:13:20;;;;;;;8.73;3.35;;;22.80;99.90;;;;;;1884809;76;21087;-76
2022/10/26 14:16:14;;;;;;;11.57;3.98;;;22.80;99.90;;;;;;1901506;75;21133;-76
2022/10/26 14:19:09;;;;;;;7.65;3.00;;;22.80;99.90;;;;;;1897103;75;21204;-76
2022/10/26 14:22:01;;;;;;;9.68;3.80;;;22.80;99.90;;;;;;1895480;75;21111;-76
2022/10/26 14:24:54;;;;;;;11.12;3.25;;;22.90;99.90;;;;;;1895692;75;21208;-76
2022/10/26 14:27:46;;;;;;;10.00;3.85;;;23.00;99.90;;;;;;1897360;75;21101;-77
2022/10/26 14:30:37;;;;;;;8.95;3.35;;;23.00;99.90;;;;;;1884543;75;21208;-76
2022/10/26 14:33:30;;;;;;;9.00;2.90;;;23.00;99.90;;;;;;1884520;76;21150;-77
2022/10/26 14:36:24;;;;;;;8.35;3.65;;;23.00;99.90;;;;;;1889718;75;21052;-77
2022/10/26 14:39:21;;;;;;;9.08;2.85;;;22.80;99.90;;;;;;1897369;75;21173;-77
2022/10/26 14:42:16;;;;;;;12.68;3.05;;;22.80;99.90;;;;;;1919734;74;21090;-77
2022/10/26 14:45:20;;;;;;;14.35;3.85;;;22.80;99.90;;;;;;1914908;74;21149;-77
2022/10/26 14:48:23;;;;;;;10.70;3.83;;;22.80;99.90;;;;;;1913068;74;21780;-77
2022/10/26 14:51:20;;;;;;;11.93;3.47;;;22.80;99.90;;;;;;1923816;74;21142;-77
2022/10/26 14:54:21;;;;;;;14.30;4.05;;;22.80;99.90;;;;;;1922087;74;21050;-77
2022/10/26 14:57:34;;;;;;;10.38;3.35;;;22.70;99.90;;;;;;1924487;74;21142;-76
2022/10/26 15:00:26;;;;;;;8.98;2.67;;;22.70;99.90;;;;;;1931259;74;21129;-77
2022/10/26 15:03:18;;;;;;;11.15;4.37;;;22.70;99.90;;;;;;1899769;75;21062;-77
2022/10/26 15:06:33;;;;;;;11.12;3.52;;;22.70;99.90;;;;;;1899787;74;21133;-78
2022/10/26 15:09:46;;;;;;;13.88;4.08;;;22.60;99.90;;;;;;1911884;74;21079;-76
2022/10/26 15:12:38;;;;;;;13.48;3.90;;;22.60;99.90;;;;;;1911420;74;21532;-78
2022/10/26 15:15:29;;;;;;;13.55;4.15;;;22.50;99.90;;;;;;1910577;74;21055;-78
2022/10/26 15:18:25;;;;;;;13.48;4.15;;;22.30;99.90;;;;;;1908659;74;21165;-77
2022/10/26 15:21:28;;;;;;;12.65;3.98;;;22.30;99.90;;;;;;1919866;74;21102;-77